Time;durP1;ratioP1;P1;durP2;ratioP2;P2;SDS_P1;SDS_P2;PMS_P1;PMS_P2;Temp;Humidity;BMP_temperature;BMP_pressure;BME280_temperature;BME280_humidity;BME280_pressure;Samples;Min_cycle;Max_cycle;Signal;HPM_P1;HPM_P2
2023/06/27 00:01:23;;;;;;;26.93;14.90;;;27.00;63.30;;;;;;5112572;28;20099;-85
2023/06/27 00:03:51;;;;;;;23.73;13.67;;;26.90;63.50;;;;;;5113659;28;20039;-85
2023/06/27 00:06:21;;;;;;;24.13;14.63;;;26.80;63.80;;;;;;5095219;28;20060;-85
2023/06/27 00:08:47;;;;;;;21.77;14.52;;;26.80;64.00;;;;;;5112429;28;20032;-85
2023/06/27 00:11:13;;;;;;;21.73;14.65;;;26.80;64.10;;;;;;5112332;28;20381;-85
2023/06/27 00:13:41;;;;;;;19.80;13.15;;;26.80;64.20;;;;;;5095308;27;20038;-85
2023/06/27 00:16:13;;;;;;;27.08;15.13;;;26.80;64.70;;;;;;5132537;27;20590;-86
2023/06/27 00:18:47;;;;;;;15.88;13.93;;;26.70;65.00;;;;;;5132527;27;20027;-85
2023/06/27 00:21:17;;;;;;;22.52;13.82;;;26.70;65.10;;;;;;5133751;27;20034;-85
2023/06/27 00:23:43;;;;;;;17.90;13.52;;;26.70;65.00;;;;;;5133667;27;20143;-85
2023/06/27 00:26:11;;;;;;;20.98;15.50;;;26.70;65.30;;;;;;5115106;27;20130;-85
2023/06/27 00:28:37;;;;;;;18.83;14.18;;;26.60;65.20;;;;;;5131990;27;20031;-86
2023/06/27 00:31:03;;;;;;;19.85;14.65;;;26.60;65.90;;;;;;5116122;27;20084;-85
2023/06/27 00:33:29;;;;;;;18.75;14.50;;;26.40;67.10;;;;;;5115141;27;20023;-85
2023/06/27 00:35:57;;;;;;;20.40;14.20;;;26.30;67.80;;;;;;5132174;27;20019;-85
2023/06/27 00:38:23;;;;;;;27.73;17.03;;;26.20;67.50;;;;;;5132979;27;20105;-85
2023/06/27 00:40:49;;;;;;;25.97;16.60;;;26.20;67.20;;;;;;5115144;27;20050;-85
2023/06/27 00:43:14;;;;;;;23.93;17.03;;;26.20;67.20;;;;;;5114891;27;20031;-85
2023/06/27 00:45:40;;;;;;;26.63;15.77;;;26.20;67.40;;;;;;5132257;27;20494;-86
2023/06/27 00:48:07;;;;;;;18.43;14.77;;;26.20;67.70;;;;;;5114921;27;20114;-85
2023/06/27 00:50:35;;;;;;;23.58;14.85;;;26.20;68.20;;;;;;5114826;27;20298;-85
2023/06/27 00:53:02;;;;;;;21.88;14.88;;;26.20;69.30;;;;;;5111052;28;20126;-85
2023/06/27 00:55:30;;;;;;;24.65;15.43;;;26.10;69.60;;;;;;5114093;27;20023;-86
2023/06/27 00:57:56;;;;;;;19.02;15.52;;;26.10;69.90;;;;;;5124548;27;20172;-85
2023/06/27 01:00:22;;;;;;;26.00;17.33;;;26.00;70.10;;;;;;5128856;27;20110;-85
2023/06/27 01:02:48;;;;;;;26.08;17.55;;;26.00;69.90;;;;;;5116902;27;20038;-85
2023/06/27 01:05:16;;;;;;;29.07;17.17;;;26.00;69.70;;;;;;5095889;28;20023;-85
2023/06/27 01:07:57;;;;;;;25.85;17.40;;;26.00;69.80;;;;;;5110557;28;20027;-86
2023/06/27 01:10:49;;;;;;;22.20;16.15;;;25.90;69.60;;;;;;5103351;28;20042;-85
2023/06/27 01:13:23;;;;;;;28.10;18.23;;;25.90;70.10;;;;;;5110784;28;20035;-85
2023/06/27 01:15:50;;;;;;;25.42;18.15;;;25.90;69.40;;;;;;5116516;27;20027;-85
2023/06/27 01:18:31;;;;;;;25.90;17.83;;;25.90;70.00;;;;;;5129007;27;20031;-86
2023/06/27 01:20:58;;;;;;;29.02;18.58;;;25.80;70.00;;;;;;5113788;27;20059;-85
2023/06/27 01:23:31;;;;;;;29.25;18.58;;;25.80;70.20;;;;;;5111297;28;20031;-85
2023/06/27 01:26:09;;;;;;;33.95;18.50;;;25.70;70.40;;;;;;5117334;27;20042;-86
2023/06/27 01:28:38;;;;;;;24.08;18.15;;;25.70;70.60;;;;;;5110951;28;20510;-86
2023/06/27 01:31:06;;;;;;;21.75;17.58;;;25.70;71.20;;;;;;5101667;28;20312;-86
2023/06/27 01:33:46;;;;;;;25.38;17.48;;;25.60;71.40;;;;;;5127951;28;20030;-83
2023/06/27 01:36:41;;;;;;;23.65;17.90;;;25.60;71.10;;;;;;5115506;28;20019;-84
2023/06/27 01:39:12;;;;;;;26.00;18.95;;;25.50;71.30;;;;;;5129716;28;20027;-85
2023/06/27 01:41:43;;;;;;;26.67;18.02;;;25.50;72.30;;;;;;5112234;28;20051;-85
2023/06/27 01:44:12;;;;;;;28.05;18.80;;;25.50;72.10;;;;;;5101819;28;20031;-85
2023/06/27 01:46:39;;;;;;;19.70;17.70;;;25.50;72.40;;;;;;5117781;28;20114;-85
2023/06/27 01:49:05;;;;;;;22.85;18.05;;;25.40;72.30;;;;;;5110915;28;20035;-85
2023/06/27 01:51:32;;;;;;;24.50;19.00;;;25.40;72.90;;;;;;5131492;27;20023;-84
2023/06/27 01:53:59;;;;;;;33.25;19.50;;;25.40;73.00;;;;;;5117310;27;20050;-84
2023/06/27 01:56:24;;;;;;;22.50;18.00;;;25.40;73.30;;;;;;5124907;27;20491;-85
2023/06/27 01:58:51;;;;;;;20.73;18.50;;;25.30;73.30;;;;;;5128540;27;20125;-85
2023/06/27 02:01:16;;;;;;;23.70;18.40;;;25.30;73.60;;;;;;5133105;27;20027;-84
2023/06/27 02:03:43;;;;;;;22.38;18.23;;;25.30;73.90;;;;;;5117581;27;20034;-85
2023/06/27 02:06:09;;;;;;;23.07;17.73;;;25.30;73.70;;;;;;5126054;27;20122;-85
2023/06/27 02:08:35;;;;;;;27.37;17.43;;;25.30;73.80;;;;;;5108069;27;20038;-84
2023/06/27 02:11:01;;;;;;;21.07;18.20;;;25.20;73.70;;;;;;5130425;27;20024;-84
2023/06/27 02:13:26;;;;;;;28.27;18.40;;;25.20;74.00;;;;;;5132996;27;20491;-84
2023/06/27 02:15:52;;;;;;;27.63;18.63;;;25.20;74.20;;;;;;5120706;27;20113;-84
2023/06/27 02:18:20;;;;;;;27.98;18.17;;;25.10;74.10;;;;;;5123486;27;20027;-84
2023/06/27 02:20:46;;;;;;;21.13;17.47;;;25.10;74.30;;;;;;5122012;27;20496;-84
2023/06/27 02:23:12;;;;;;;21.83;17.40;;;25.10;74.60;;;;;;5128833;27;20027;-85
2023/06/27 02:25:37;;;;;;;28.63;17.77;;;25.10;74.00;;;;;;5115203;27;20114;-85
2023/06/27 02:28:05;;;;;;;26.90;18.87;;;25.10;74.00;;;;;;5116788;27;20081;-84
2023/06/27 02:30:31;;;;;;;25.52;17.00;;;25.10;73.70;;;;;;5105887;28;20483;-84
2023/06/27 02:32:57;;;;;;;25.80;16.67;;;25.10;73.90;;;;;;5114058;28;20080;-84
2023/06/27 02:35:23;;;;;;;24.93;17.57;;;25.10;73.80;;;;;;5128318;27;20031;-84
2023/06/27 02:37:49;;;;;;;23.03;17.20;;;25.10;73.60;;;;;;5134332;27;20023;-83
2023/06/27 02:40:15;;;;;;;24.60;17.02;;;25.10;73.50;;;;;;5134560;27;20035;-83
2023/06/27 02:42:41;;;;;;;18.20;15.83;;;25.10;74.00;;;;;;5134497;27;20023;-83
2023/06/27 02:45:07;;;;;;;27.43;16.87;;;25.10;74.00;;;;;;5134063;27;20031;-83
2023/06/27 02:47:33;;;;;;;23.08;16.35;;;25.10;73.90;;;;;;5134274;27;20027;-83
2023/06/27 02:49:59;;;;;;;21.37;16.83;;;25.10;74.10;;;;;;5135623;27;20114;-83
2023/06/27 02:52:25;;;;;;;22.75;17.92;;;25.10;74.20;;;;;;5114890;27;20073;-83
2023/06/27 02:54:52;;;;;;;25.23;17.73;;;25.10;74.30;;;;;;5113498;28;20032;-84
2023/06/27 02:57:18;;;;;;;21.08;17.45;;;25.00;74.30;;;;;;5096672;28;20019;-84
2023/06/27 02:59:45;;;;;;;23.10;18.10;;;25.00;74.60;;;;;;5097007;28;20031;-84
2023/06/27 03:02:13;;;;;;;25.80;18.20;;;25.00;74.90;;;;;;5128286;27;20130;-84
2023/06/27 03:04:39;;;;;;;26.60;18.03;;;25.00;74.90;;;;;;5122381;27;20507;-84
2023/06/27 03:07:05;;;;;;;24.50;17.80;;;25.00;74.80;;;;;;5125488;27;20090;-84
2023/06/27 03:09:32;;;;;;;21.52;16.58;;;24.90;75.20;;;;;;5128312;27;20031;-83
2023/06/27 03:11:58;;;;;;;22.33;17.20;;;24.90;75.10;;;;;;5114613;27;20119;-83
2023/06/27 03:14:26;;;;;;;21.15;17.63;;;24.90;75.30;;;;;;5122019;27;20023;-85
2023/06/27 03:16:54;;;;;;;27.75;18.67;;;24.90;75.20;;;;;;5130426;27;20151;-85
2023/06/27 03:19:20;;;;;;;27.15;18.48;;;24.90;75.10;;;;;;5115783;27;20561;-84
2023/06/27 03:21:47;;;;;;;24.58;17.20;;;24.90;75.70;;;;;;5116886;27;20034;-85
2023/06/27 03:24:13;;;;;;;23.17;17.97;;;24.80;75.50;;;;;;5125090;27;20084;-84
2023/06/27 03:26:43;;;;;;;24.70;18.13;;;24.80;75.70;;;;;;5113006;28;20261;-84
2023/06/27 03:29:09;;;;;;;24.37;17.73;;;24.80;76.40;;;;;;5127868;27;20555;-84
2023/06/27 03:31:35;;;;;;;23.77;17.63;;;24.80;75.90;;;;;;5124562;27;20023;-84
2023/06/27 03:34:00;;;;;;;24.40;16.53;;;24.70;76.20;;;;;;5119500;27;20026;-84
2023/06/27 03:36:28;;;;;;;23.17;17.77;;;24.70;75.90;;;;;;5125840;27;20480;-84
2023/06/27 03:38:55;;;;;;;21.02;16.83;;;24.70;75.80;;;;;;5115579;27;20031;-84
2023/06/27 03:41:21;;;;;;;25.13;17.40;;;24.70;75.90;;;;;;5119974;27;20578;-84
2023/06/27 03:43:47;;;;;;;22.27;16.85;;;24.70;75.80;;;;;;5113387;27;20030;-84
2023/06/27 03:46:14;;;;;;;18.87;16.00;;;24.70;76.40;;;;;;5128565;27;20031;-84
2023/06/27 03:48:40;;;;;;;25.45;18.27;;;24.70;76.30;;;;;;5120428;27;20450;-82
2023/06/27 03:51:06;;;;;;;32.27;17.70;;;24.70;76.60;;;;;;5125295;27;20031;-84
2023/06/27 03:53:32;;;;;;;25.07;17.27;;;24.70;76.40;;;;;;5117466;27;20024;-84
2023/06/27 03:55:59;;;;;;;27.87;18.03;;;24.60;76.70;;;;;;5119717;27;20038;-84
2023/06/27 03:58:25;;;;;;;22.17;16.20;;;24.60;76.40;;;;;;5118681;27;20027;-83
2023/06/27 04:00:55;;;;;;;21.77;16.10;;;24.60;76.70;;;;;;5116149;27;20372;-84
2023/06/27 04:03:21;;;;;;;27.55;15.82;;;24.60;76.90;;;;;;5121385;27;20042;-84
2023/06/27 04:05:47;;;;;;;24.67;17.37;;;24.60;77.30;;;;;;5114229;27;20031;-82
2023/06/27 04:08:13;;;;;;;28.42;18.25;;;24.60;77.10;;;;;;5114154;28;20369;-83
2023/06/27 04:10:42;;;;;;;23.70;17.77;;;24.60;77.20;;;;;;5097185;28;20115;-83
2023/06/27 04:13:11;;;;;;;26.75;18.92;;;24.50;77.50;;;;;;5113655;28;20121;-83
2023/06/27 04:15:39;;;;;;;27.42;17.98;;;24.50;77.40;;;;;;5113402;28;20020;-82
2023/06/27 04:18:07;;;;;;;25.25;17.95;;;24.50;77.90;;;;;;5113224;28;20180;-82
2023/06/27 04:20:33;;;;;;;24.90;18.38;;;24.30;78.30;;;;;;5111788;28;20024;-82
2023/06/27 04:22:59;;;;;;;20.70;17.43;;;24.30;78.50;;;;;;5113260;28;20028;-82
2023/06/27 04:25:29;;;;;;;22.43;17.17;;;24.20;79.00;;;;;;5095682;28;20031;-82
2023/06/27 04:27:56;;;;;;;24.63;18.80;;;24.30;78.80;;;;;;5113236;28;20024;-82
2023/06/27 04:30:22;;;;;;;24.10;18.10;;;24.30;78.60;;;;;;5096013;28;20097;-83
2023/06/27 04:32:50;;;;;;;20.63;17.57;;;24.40;78.00;;;;;;5113027;28;20052;-83
2023/06/27 04:35:18;;;;;;;33.70;18.20;;;24.50;78.10;;;;;;5113461;28;20322;-82
2023/06/27 04:37:47;;;;;;;26.85;18.27;;;24.60;77.60;;;;;;5112207;28;20140;-82
2023/06/27 04:40:13;;;;;;;24.50;17.83;;;24.60;76.80;;;;;;5112742;28;20450;-83
2023/06/27 04:42:39;;;;;;;22.00;18.58;;;24.70;77.10;;;;;;5112807;28;20024;-83
2023/06/27 04:45:06;;;;;;;23.87;17.37;;;24.80;76.80;;;;;;5112949;28;20517;-82
2023/06/27 04:47:36;;;;;;;22.98;17.67;;;24.90;76.80;;;;;;5112744;28;20031;-83
2023/06/27 04:50:05;;;;;;;25.35;17.33;;;24.90;76.50;;;;;;5113747;28;20392;-83
2023/06/27 04:52:32;;;;;;;34.67;19.20;;;24.90;77.00;;;;;;5111928;28;20031;-83
2023/06/27 04:54:58;;;;;;;22.23;16.80;;;24.90;76.80;;;;;;5095492;28;20049;-83
2023/06/27 04:57:24;;;;;;;26.05;18.40;;;25.00;76.60;;;;;;5112454;28;20028;-83
2023/06/27 04:59:50;;;;;;;21.97;17.93;;;25.00;76.50;;;;;;5112760;28;20072;-83
2023/06/27 05:02:15;;;;;;;25.17;18.90;;;25.00;76.50;;;;;;5096283;28;20055;-83
2023/06/27 05:04:41;;;;;;;23.03;19.00;;;25.10;76.30;;;;;;5112879;28;20035;-83
2023/06/27 05:07:07;;;;;;;27.07;18.73;;;25.10;76.60;;;;;;5114687;28;20032;-83
2023/06/27 05:09:33;;;;;;;20.97;17.07;;;25.10;76.80;;;;;;5113912;28;20031;-83
2023/06/27 05:11:59;;;;;;;24.27;16.97;;;25.10;76.20;;;;;;5114263;28;20016;-83
2023/06/27 05:14:24;;;;;;;25.43;17.73;;;25.20;76.60;;;;;;5096010;28;20098;-83
2023/06/27 05:16:50;;;;;;;26.50;17.10;;;25.20;75.60;;;;;;5114206;28;20016;-83
2023/06/27 05:19:16;;;;;;;25.30;17.60;;;25.30;75.20;;;;;;5113133;28;20032;-83
2023/06/27 05:21:42;;;;;;;21.07;17.23;;;25.30;75.00;;;;;;5113826;28;20027;-83
2023/06/27 05:24:08;;;;;;;20.58;16.48;;;25.30;75.20;;;;;;5095229;28;20031;-83
2023/06/27 05:26:34;;;;;;;20.80;16.10;;;25.30;74.80;;;;;;5111097;28;20032;-83
2023/06/27 05:29:00;;;;;;;25.07;16.43;;;25.40;74.70;;;;;;5112366;28;20518;-82
2023/06/27 05:31:29;;;;;;;19.38;17.20;;;25.40;74.10;;;;;;5111726;28;20289;-83
2023/06/27 05:33:55;;;;;;;21.17;14.57;;;25.40;74.60;;;;;;5112801;28;20087;-83
2023/06/27 05:36:21;;;;;;;18.17;15.77;;;25.40;74.30;;;;;;5112518;28;20069;-83
2023/06/27 05:38:49;;;;;;;25.73;16.73;;;25.40;74.30;;;;;;5111738;28;20055;-83
2023/06/27 05:41:18;;;;;;;22.70;16.08;;;25.40;74.50;;;;;;5112665;28;20042;-84
2023/06/27 05:43:45;;;;;;;23.13;16.25;;;25.40;74.80;;;;;;5112864;28;20076;-84
2023/06/27 05:46:11;;;;;;;28.67;16.83;;;25.50;74.90;;;;;;5113176;28;20032;-83
2023/06/27 05:48:37;;;;;;;23.27;16.98;;;25.50;75.20;;;;;;5112554;28;20046;-84
2023/06/27 05:51:03;;;;;;;22.83;15.70;;;25.60;75.10;;;;;;5112546;28;20476;-84
2023/06/27 05:53:29;;;;;;;34.27;16.27;;;25.60;75.20;;;;;;5110763;28;20089;-84
2023/06/27 05:55:54;;;;;;;21.70;16.20;;;25.70;74.70;;;;;;5110804;28;20027;-84
2023/06/27 05:58:20;;;;;;;21.43;15.67;;;25.70;74.70;;;;;;5113269;28;20024;-83
2023/06/27 06:00:46;;;;;;;19.93;15.57;;;25.70;74.70;;;;;;5113033;28;20024;-83
2023/06/27 06:03:13;;;;;;;23.13;16.83;;;25.80;74.70;;;;;;5111248;28;20055;-83
2023/06/27 06:05:39;;;;;;;22.42;15.27;;;25.90;75.30;;;;;;5111908;28;20118;-83
2023/06/27 06:08:04;;;;;;;23.77;16.13;;;26.00;75.30;;;;;;5113299;28;20059;-84
2023/06/27 06:10:30;;;;;;;32.90;15.97;;;26.00;75.20;;;;;;5113212;28;20467;-84
2023/06/27 06:12:56;;;;;;;25.97;14.90;;;26.10;75.50;;;;;;5112864;28;20022;-84
2023/06/27 06:15:22;;;;;;;37.03;15.87;;;26.10;76.70;;;;;;5110532;28;20365;-83
2023/06/27 06:17:48;;;;;;;27.50;15.47;;;26.10;76.00;;;;;;5111858;28;20028;-83
2023/06/27 06:20:14;;;;;;;22.75;13.55;;;26.20;75.70;;;;;;5110453;28;20059;-83
2023/06/27 06:22:40;;;;;;;26.58;13.57;;;26.30;74.90;;;;;;5112596;28;20034;-83
2023/06/27 06:25:07;;;;;;;16.97;12.77;;;26.30;75.10;;;;;;5113222;28;20031;-83
2023/06/27 06:27:32;;;;;;;;;;;26.30;75.20;;;;;;5114634;28;20032;-83
2023/06/27 06:29:58;;;;;;;17.95;13.65;;;26.40;75.00;;;;;;5112633;28;20383;-83
2023/06/27 06:32:24;;;;;;;19.13;12.63;;;26.40;75.70;;;;;;5095508;28;20028;-82
2023/06/27 06:34:50;;;;;;;20.10;14.10;;;26.60;75.50;;;;;;5115636;28;20015;-82
2023/06/27 06:37:16;;;;;;;16.33;11.98;;;26.60;74.50;;;;;;5117330;28;20458;-82
2023/06/27 06:39:42;;;;;;;16.47;13.40;;;26.60;74.30;;;;;;5118934;28;20061;-82
2023/06/27 06:42:08;;;;;;;13.32;11.82;;;26.70;73.90;;;;;;5119422;28;20027;-83
2023/06/27 06:44:37;;;;;;;17.00;11.40;;;26.80;73.80;;;;;;5107521;27;20031;-82
2023/06/27 06:47:03;;;;;;;21.60;12.00;;;26.80;73.70;;;;;;5119997;27;20483;-82
2023/06/27 06:49:29;;;;;;;17.07;11.70;;;26.90;72.90;;;;;;5119093;27;20027;-81
2023/06/27 06:51:55;;;;;;;18.00;12.23;;;26.90;73.40;;;;;;5118790;28;20034;-82
2023/06/27 06:54:21;;;;;;;20.27;11.50;;;27.00;73.20;;;;;;5115621;28;20461;-88
2023/06/27 06:56:49;;;;;;;17.23;13.10;;;27.10;72.90;;;;;;5097170;28;20020;-85
2023/06/27 06:59:15;;;;;;;19.00;12.15;;;27.20;73.10;;;;;;5115299;28;20041;-84
2023/06/27 07:01:41;;;;;;;21.40;11.70;;;27.20;72.70;;;;;;5116722;28;20705;-83
2023/06/27 07:04:07;;;;;;;14.85;11.50;;;27.30;72.10;;;;;;5099060;28;20050;-84
2023/06/27 07:06:32;;;;;;;14.33;11.13;;;27.30;71.40;;;;;;5115717;28;20034;-84
2023/06/27 07:08:58;;;;;;;14.53;12.07;;;27.30;69.90;;;;;;5098465;28;20031;-84
2023/06/27 07:11:24;;;;;;;17.40;12.20;;;27.30;69.70;;;;;;5098638;28;20028;-83
2023/06/27 07:13:50;;;;;;;15.07;12.73;;;27.30;69.70;;;;;;5115571;28;20450;-84
2023/06/27 07:16:16;;;;;;;17.63;11.87;;;27.30;70.00;;;;;;5113728;28;20023;-84
2023/06/27 07:18:41;;;;;;;22.07;12.53;;;27.40;70.20;;;;;;5115615;28;20084;-83
2023/06/27 07:21:07;;;;;;;21.00;12.90;;;27.50;69.90;;;;;;5115285;28;20038;-83
2023/06/27 07:23:33;;;;;;;14.60;11.85;;;27.50;69.90;;;;;;5117503;28;20068;-82
2023/06/27 07:25:59;;;;;;;20.00;12.93;;;27.60;69.10;;;;;;5116043;28;20455;-83
2023/06/27 07:28:25;;;;;;;22.63;13.27;;;27.70;68.50;;;;;;5117129;28;20038;-83
2023/06/27 07:30:51;;;;;;;14.80;10.90;;;27.80;68.30;;;;;;5115981;28;20472;-85
2023/06/27 07:33:16;;;;;;;18.77;10.63;;;27.90;67.30;;;;;;5115067;28;20023;-82
2023/06/27 07:35:42;;;;;;;13.70;10.53;;;28.00;66.90;;;;;;5114704;27;20035;-82
2023/06/27 07:38:08;;;;;;;14.93;10.63;;;28.10;66.50;;;;;;5113511;28;20099;-80
2023/06/27 07:40:34;;;;;;;20.05;11.43;;;28.20;65.80;;;;;;5097270;28;20032;-80
2023/06/27 07:43:00;;;;;;;20.03;11.00;;;28.30;65.60;;;;;;5096424;28;20039;-79
2023/06/27 07:45:27;;;;;;;15.87;11.20;;;28.30;65.80;;;;;;5103321;27;20047;-80
2023/06/27 07:47:53;;;;;;;13.02;9.82;;;28.30;65.80;;;;;;5134966;27;20493;-79
2023/06/27 07:50:18;;;;;;;26.57;10.70;;;28.40;65.30;;;;;;5134974;27;20065;-80
2023/06/27 07:52:45;;;;;;;11.47;8.67;;;28.40;65.00;;;;;;5133620;27;20031;-80
2023/06/27 07:55:10;;;;;;;17.48;7.93;;;28.50;65.60;;;;;;5134870;27;20106;-79
2023/06/27 07:57:36;;;;;;;22.63;13.93;;;28.60;64.10;;;;;;5134897;27;20463;-82
2023/06/27 08:00:03;;;;;;;11.43;8.53;;;28.60;63.10;;;;;;5116675;27;20023;-82
2023/06/27 08:02:38;;;;;;;17.65;9.60;;;28.70;63.40;;;;;;5133868;27;20031;-79
2023/06/27 08:05:05;;;;;;;13.85;8.95;;;28.70;63.20;;;;;;5133617;27;20031;-82
2023/06/27 08:07:30;;;;;;;11.70;8.30;;;28.80;63.20;;;;;;5135358;27;20023;-80
2023/06/27 08:09:56;;;;;;;10.43;7.70;;;28.90;62.30;;;;;;5134795;27;20031;-80
2023/06/27 08:12:22;;;;;;;11.53;8.27;;;29.00;61.70;;;;;;5133930;27;20486;-80
2023/06/27 08:14:49;;;;;;;13.63;9.17;;;29.00;62.20;;;;;;5056506;27;20035;-80
2023/06/27 08:17:15;;;;;;;15.07;8.57;;;29.10;62.30;;;;;;5113706;27;20511;-82
2023/06/27 08:19:41;;;;;;;15.20;9.47;;;29.20;62.10;;;;;;5133740;27;20024;-80
2023/06/27 08:22:07;;;;;;;11.90;8.83;;;29.30;62.10;;;;;;5133868;27;20395;-80
2023/06/27 08:24:33;;;;;;;12.48;9.52;;;29.40;61.70;;;;;;5133406;27;20027;-80
2023/06/27 08:26:58;;;;;;;10.27;8.07;;;29.40;61.90;;;;;;5134158;27;20102;-83
2023/06/27 08:29:25;;;;;;;9.93;8.83;;;29.50;62.20;;;;;;5134932;27;20276;-81
2023/06/27 08:31:58;;;;;;;20.35;10.05;;;29.60;62.40;;;;;;5133135;27;20023;-82
2023/06/27 08:34:24;;;;;;;17.25;9.68;;;29.60;61.80;;;;;;5134223;27;20019;-81
2023/06/27 08:36:49;;;;;;;14.97;9.33;;;29.60;61.40;;;;;;5136728;27;20030;-80
2023/06/27 08:39:16;;;;;;;38.63;11.03;;;29.60;60.90;;;;;;5137420;27;20636;-81
2023/06/27 08:41:41;;;;;;;11.85;8.85;;;29.60;61.10;;;;;;5133825;27;20380;-81
2023/06/27 08:44:07;;;;;;;20.13;9.15;;;29.70;61.70;;;;;;5132433;27;20573;-81
2023/06/27 08:46:35;;;;;;;16.00;10.10;;;29.70;60.50;;;;;;5115395;27;20160;-81
2023/06/27 08:49:03;;;;;;;13.57;9.05;;;29.80;59.80;;;;;;5132388;27;20494;-81
2023/06/27 08:51:33;;;;;;;13.55;10.07;;;29.80;59.30;;;;;;5133774;27;20141;-81
2023/06/27 08:54:17;;;;;;;14.80;10.20;;;30.00;59.60;;;;;;5134062;27;20487;-81
2023/06/27 08:56:44;;;;;;;16.23;9.20;;;30.10;59.50;;;;;;5133883;27;20132;-81
2023/06/27 08:59:16;;;;;;;11.20;8.93;;;30.30;58.90;;;;;;5133620;27;20053;-81
2023/06/27 09:01:42;;;;;;;17.17;10.02;;;30.50;59.50;;;;;;5133946;27;20118;-81
2023/06/27 09:04:09;;;;;;;18.33;9.68;;;30.60;58.10;;;;;;5132949;27;20029;-81
2023/06/27 09:06:35;;;;;;;13.38;10.10;;;30.70;57.80;;;;;;5134078;27;20582;-82
2023/06/27 09:09:01;;;;;;;19.83;9.55;;;30.70;58.00;;;;;;5133377;27;20073;-81
2023/06/27 09:11:28;;;;;;;12.10;9.05;;;30.90;57.90;;;;;;5133488;27;20035;-81
2023/06/27 09:13:53;;;;;;;;;;;30.90;57.80;;;;;;5134461;27;20026;-81
2023/06/27 09:16:19;;;;;;;19.38;8.65;;;31.00;57.50;;;;;;5115061;28;20000;-81
2023/06/27 09:18:46;;;;;;;14.30;9.07;;;31.20;57.30;;;;;;5133528;27;20027;-81
2023/06/27 09:21:12;;;;;;;;;;;31.30;57.30;;;;;;5134061;27;20065;-81
2023/06/27 09:23:38;;;;;;;15.25;7.75;;;31.40;56.20;;;;;;5132405;27;19930;-81
2023/06/27 09:26:13;;;;;;;14.25;9.13;;;31.40;56.30;;;;;;5134234;27;20387;-81
2023/06/27 09:28:50;;;;;;;11.05;8.52;;;31.40;55.30;;;;;;5132515;27;20384;-81
2023/06/27 09:31:21;;;;;;;20.67;7.65;;;31.50;55.90;;;;;;5132479;27;20027;-81
2023/06/27 09:33:48;;;;;;;14.35;8.07;;;31.50;55.00;;;;;;5132586;27;20031;-82
2023/06/27 09:36:33;;;;;;;11.63;8.02;;;31.50;55.20;;;;;;5116955;28;20072;-81
2023/06/27 09:39:26;;;;;;;9.85;8.23;;;31.70;55.90;;;;;;5133046;27;20050;-81
2023/06/27 09:41:51;;;;;;;12.48;7.43;;;31.70;54.40;;;;;;5114413;28;20122;-81
2023/06/27 09:44:19;;;;;;;13.75;8.52;;;31.80;54.80;;;;;;5132949;27;20103;-81
2023/06/27 09:46:49;;;;;;;12.23;8.75;;;31.80;55.00;;;;;;5134571;27;20132;-81
2023/06/27 09:49:16;;;;;;;13.88;9.18;;;31.90;55.90;;;;;;5133024;28;20023;-81
2023/06/27 09:51:49;;;;;;;15.30;10.00;;;32.00;55.90;;;;;;5134955;28;20027;-81
2023/06/27 09:54:21;;;;;;;14.93;10.40;;;32.10;55.40;;;;;;5134629;28;20056;-82
2023/06/27 09:56:51;;;;;;;18.48;10.13;;;32.20;55.40;;;;;;5134372;27;20487;-82
2023/06/27 09:59:19;;;;;;;15.40;9.60;;;32.20;55.90;;;;;;5132652;27;20027;-81
2023/06/27 10:01:45;;;;;;;16.52;9.43;;;32.20;55.50;;;;;;5133996;28;20027;-81
2023/06/27 10:04:11;;;;;;;12.95;10.05;;;32.20;55.00;;;;;;5132349;27;20483;-82
2023/06/27 10:06:38;;;;;;;15.00;9.20;;;32.10;55.30;;;;;;5115251;28;20042;-82
2023/06/27 10:09:04;;;;;;;15.68;9.13;;;32.20;55.50;;;;;;5133760;28;20027;-81
2023/06/27 10:11:30;;;;;;;14.05;10.10;;;32.20;56.00;;;;;;5134343;27;20436;-81
2023/06/27 10:13:56;;;;;;;11.25;8.63;;;32.30;56.00;;;;;;5118932;27;20035;-81
2023/06/27 10:16:22;;;;;;;19.90;10.70;;;32.30;55.80;;;;;;5131898;27;20055;-82
2023/06/27 10:18:48;;;;;;;14.27;8.77;;;32.30;55.50;;;;;;5125762;27;20119;-81
2023/06/27 10:21:16;;;;;;;9.95;8.88;;;32.30;55.60;;;;;;5103459;28;20061;-81
2023/06/27 10:23:50;;;;;;;15.43;10.13;;;32.20;55.80;;;;;;5099719;28;20028;-82
2023/06/27 10:26:20;;;;;;;14.88;10.80;;;32.20;54.50;;;;;;5107037;27;20122;-80
2023/06/27 10:28:52;;;;;;;12.32;9.43;;;32.10;55.20;;;;;;5131799;27;20035;-80
2023/06/27 10:31:45;;;;;;;12.20;9.35;;;32.10;55.80;;;;;;5107580;27;20079;-80
2023/06/27 10:34:20;;;;;;;14.05;8.85;;;32.20;54.40;;;;;;5124940;27;20122;-83
2023/06/27 10:36:57;;;;;;;11.70;8.60;;;32.20;55.80;;;;;;5119380;27;20035;-80
2023/06/27 10:39:31;;;;;;;15.43;9.48;;;32.30;54.80;;;;;;5116797;28;20036;-79
2023/06/27 10:42:03;;;;;;;13.00;8.73;;;32.20;54.40;;;;;;5132245;27;20209;-79
2023/06/27 10:44:30;;;;;;;14.52;9.55;;;32.30;55.20;;;;;;5118938;27;20035;-79
2023/06/27 10:47:20;;;;;;;17.02;9.27;;;32.40;55.40;;;;;;5135400;27;20038;-80
2023/06/27 10:49:48;;;;;;;14.52;10.50;;;32.40;53.10;;;;;;5132909;27;20023;-79
2023/06/27 10:52:32;;;;;;;13.38;10.15;;;32.40;54.90;;;;;;5120731;27;20098;-79
2023/06/27 10:55:19;;;;;;;14.80;9.55;;;32.50;55.70;;;;;;5124715;27;20120;-80
2023/06/27 10:57:49;;;;;;;14.90;8.60;;;32.60;55.40;;;;;;5131441;27;20015;-79
2023/06/27 11:00:22;;;;;;;14.55;8.82;;;32.60;54.80;;;;;;5107129;27;20028;-80
2023/06/27 11:02:49;;;;;;;10.63;9.50;;;32.70;55.70;;;;;;5106695;27;20038;-80
2023/06/27 11:05:18;;;;;;;16.90;9.38;;;32.80;55.20;;;;;;5128721;27;20480;-80
2023/06/27 11:07:58;;;;;;;11.93;8.60;;;32.80;55.00;;;;;;5130536;27;20023;-80
2023/06/27 11:10:26;;;;;;;11.85;8.57;;;32.90;55.30;;;;;;5129538;27;20028;-79
2023/06/27 11:13:13;;;;;;;12.75;8.18;;;32.90;54.10;;;;;;5120530;27;20022;-83
2023/06/27 11:15:39;;;;;;;13.27;8.23;;;33.00;54.10;;;;;;5129009;27;20039;-80
2023/06/27 11:18:05;;;;;;;17.17;10.70;;;32.90;54.50;;;;;;5122254;27;20024;-86
2023/06/27 11:20:31;;;;;;;;;;;33.00;55.30;;;;;;5117472;27;20027;-88
2023/06/27 11:23:04;;;;;;;13.07;7.88;;;33.00;55.40;;;;;;5123187;27;19907;-85
2023/06/27 11:25:40;;;;;;;9.55;6.95;;;33.10;54.70;;;;;;5114395;28;20035;-81
2023/06/27 11:28:06;;;;;;;13.32;7.70;;;33.20;54.00;;;;;;5131596;27;20027;-81
2023/06/27 11:30:33;;;;;;;12.88;7.20;;;33.20;53.90;;;;;;5127566;27;20031;-81
2023/06/27 11:33:00;;;;;;;15.00;7.68;;;33.20;54.10;;;;;;5122742;27;20403;-80
2023/06/27 11:35:28;;;;;;;11.35;6.82;;;33.40;54.50;;;;;;5128382;27;20072;-80
2023/06/27 11:37:54;;;;;;;9.68;6.88;;;33.60;54.30;;;;;;5130008;27;20035;-80
2023/06/27 11:40:24;;;;;;;8.70;6.20;;;33.80;53.20;;;;;;5118256;27;20083;-81
2023/06/27 11:42:51;;;;;;;9.52;5.80;;;33.90;52.70;;;;;;5108165;28;20024;-81
2023/06/27 11:45:17;;;;;;;14.70;7.07;;;34.00;52.50;;;;;;5104506;28;20038;-81
2023/06/27 11:47:44;;;;;;;11.45;6.60;;;34.10;51.40;;;;;;5115255;27;20031;-80
2023/06/27 11:50:12;;;;;;;7.38;5.93;;;34.20;51.10;;;;;;5115755;27;20112;-81
2023/06/27 11:52:38;;;;;;;8.20;6.13;;;34.30;50.20;;;;;;5117047;27;20402;-81
2023/06/27 11:55:05;;;;;;;10.02;7.10;;;34.30;50.00;;;;;;5133998;27;20576;-81
2023/06/27 11:57:47;;;;;;;5.90;5.22;;;34.20;48.30;;;;;;5123236;27;20051;-80
2023/06/27 12:00:15;;;;;;;6.90;5.68;;;34.20;50.00;;;;;;5104535;27;20491;-81
2023/06/27 12:02:40;;;;;;;10.55;5.90;;;34.30;48.60;;;;;;5128238;27;20047;-81
2023/06/27 12:05:15;;;;;;;8.07;5.85;;;34.40;48.70;;;;;;5122529;27;20526;-80
2023/06/27 12:07:57;;;;;;;6.28;5.40;;;34.30;47.60;;;;;;5132721;27;20027;-81
2023/06/27 12:10:23;;;;;;;6.68;4.60;;;34.30;48.30;;;;;;5128022;27;20472;-80
2023/06/27 12:12:49;;;;;;;;;;;34.50;49.30;;;;;;5113171;27;20043;-80
2023/06/27 12:15:15;;;;;;;7.63;5.40;;;34.80;50.20;;;;;;5112362;27;19947;-81
2023/06/27 12:18:01;;;;;;;12.25;5.78;;;35.00;49.90;;;;;;5114204;27;20078;-80
2023/06/27 12:20:44;;;;;;;9.23;5.25;;;35.20;49.70;;;;;;5113565;28;20118;-80
2023/06/27 12:23:10;;;;;;;6.68;5.10;;;35.40;49.10;;;;;;5113564;28;20031;-80
2023/06/27 12:25:39;;;;;;;11.10;5.85;;;35.50;48.80;;;;;;5095323;28;20019;-80
2023/06/27 12:28:05;;;;;;;9.95;5.47;;;35.60;48.30;;;;;;5114372;27;20023;-80
2023/06/27 12:30:31;;;;;;;10.07;6.15;;;35.70;47.10;;;;;;5116020;27;20028;-80
2023/06/27 12:32:57;;;;;;;9.00;5.88;;;35.60;47.20;;;;;;5121490;27;20055;-80
2023/06/27 12:35:23;;;;;;;13.65;5.60;;;35.60;47.50;;;;;;5121148;27;20027;-80
2023/06/27 12:37:49;;;;;;;9.75;5.82;;;35.70;49.10;;;;;;5127056;27;20034;-80